Time;durP1;ratioP1;P1;durP2;ratioP2;P2;SDS_P1;SDS_P2;PMS_P1;PMS_P2;Temp;Humidity;BMP_temperature;BMP_pressure;BME280_temperature;BME280_humidity;BME280_pressure;Samples;Min_cycle;Max_cycle;Signal;HPM_P1;HPM_P2
2022/12/06 00:01:46;;;;;;;;;;;22.10;66.60;;;;;;5071935;28;19908;-75
2022/12/06 00:04:13;;;;;;;;;;;22.10;62.10;;;;;;5071904;28;19909;-75
2022/12/06 00:06:41;;;;;;;;;;;22.10;63.00;;;;;;5071768;28;19972;-74
2022/12/06 00:09:07;;;;;;;;;;;22.00;62.80;;;;;;5071527;28;20495;-75
2022/12/06 00:11:34;;;;;;;;;;;22.10;62.60;;;;;;5071759;28;19916;-74
2022/12/06 00:14:02;;;;;;;;;;;22.00;61.60;;;;;;5054210;28;19909;-74
2022/12/06 00:16:29;;;;;;;;;;;21.80;63.70;;;;;;5071967;28;20355;-75
2022/12/06 00:18:56;;;;;;;;;;;21.70;64.80;;;;;;5069770;28;19913;-74
2022/12/06 00:21:23;;;;;;;;;;;21.50;65.40;;;;;;5070550;28;20267;-75
2022/12/06 00:23:53;;;;;;;;;;;21.50;63.50;;;;;;5071812;28;19954;-74
2022/12/06 00:26:20;;;;;;;;;;;21.50;62.90;;;;;;5053651;28;19909;-75
2022/12/06 00:28:46;;;;;;;;;;;21.50;62.80;;;;;;5071673;28;19917;-75
2022/12/06 00:31:14;;;;;;;;;;;21.70;63.80;;;;;;5071659;28;20287;-75
2022/12/06 00:33:41;;;;;;;;;;;21.90;63.00;;;;;;5071721;28;20029;-75
2022/12/06 00:36:10;;;;;;;;;;;22.00;63.80;;;;;;5071742;28;20014;-73
2022/12/06 00:38:37;;;;;;;;;;;22.10;62.10;;;;;;5070961;28;19916;-75
2022/12/06 00:41:04;;;;;;;;;;;22.00;61.40;;;;;;5071337;28;19909;-74
2022/12/06 00:43:31;;;;;;;;;;;22.10;61.60;;;;;;5071652;28;19920;-75
2022/12/06 00:45:58;;;;;;;;;;;22.20;61.90;;;;;;5071689;28;19913;-74
2022/12/06 00:48:24;;;;;;;;;;;22.10;60.70;;;;;;5071284;28;19913;-75
2022/12/06 00:50:51;;;;;;;;;;;22.10;62.10;;;;;;5071459;28;19974;-76
2022/12/06 00:53:18;;;;;;;;;;;21.80;61.40;;;;;;5071404;28;19909;-74
2022/12/06 00:55:44;;;;;;;;;;;21.80;61.90;;;;;;5071800;28;19912;-74
2022/12/06 00:58:11;;;;;;;;;;;21.80;61.50;;;;;;5071879;28;19958;-75
2022/12/06 01:00:38;;;;;;;;;;;21.70;62.30;;;;;;5074696;28;19909;-74
2022/12/06 01:03:04;;;;;;;;;;;21.70;60.40;;;;;;5057150;28;19916;-74
2022/12/06 01:05:31;;;;;;;;;;;21.80;61.00;;;;;;5074877;28;20073;-74
2022/12/06 01:07:58;;;;;;;;;;;21.80;62.40;;;;;;5074967;28;19908;-74
2022/12/06 01:10:24;;;;;;;;;;;21.90;62.30;;;;;;5074589;28;19916;-74
2022/12/06 01:12:51;;;;;;;;;;;22.00;62.20;;;;;;5073416;28;19913;-73
2022/12/06 01:15:17;;;;;;;;;;;22.10;60.50;;;;;;5073151;28;19948;-75
2022/12/06 01:17:44;;;;;;;;;;;21.80;61.80;;;;;;5074518;28;19908;-75
2022/12/06 01:20:11;;;;;;;;;;;21.90;62.10;;;;;;5074660;28;19970;-74
2022/12/06 01:22:37;;;;;;;;;;;22.00;59.70;;;;;;5074842;28;19969;-74
2022/12/06 01:25:04;;;;;;;;;;;22.00;61.90;;;;;;5042888;28;20313;-75
2022/12/06 01:27:30;;;;;;;;;;;22.00;61.40;;;;;;5074228;28;19908;-74
2022/12/06 01:29:57;;;;;;;;;;;22.10;61.70;;;;;;5056291;28;19926;-75
2022/12/06 01:32:24;;;;;;;;;;;22.20;61.50;;;;;;5074632;28;20399;-75
2022/12/06 01:34:51;;;;;;;;;;;22.20;62.70;;;;;;5074293;28;19955;-75
2022/12/06 01:37:18;;;;;;;;;;;22.20;60.40;;;;;;5074230;28;20370;-74
2022/12/06 01:39:45;;;;;;;;;;;22.20;60.40;;;;;;5074655;28;19913;-74
2022/12/06 01:42:11;;;;;;;;;;;22.20;61.70;;;;;;5074214;28;19912;-76
2022/12/06 01:44:44;;;;;;;;;;;22.20;63.20;;;;;;5074279;28;20382;-74
2022/12/06 01:47:14;;;;;;;;;;;22.10;62.70;;;;;;5074251;28;20004;-74
2022/12/06 01:49:40;;;;;;;;;;;22.00;62.00;;;;;;5073937;28;19917;-75
2022/12/06 01:52:07;;;;;;;;;;;22.00;64.40;;;;;;5073889;28;19919;-73
2022/12/06 01:54:34;;;;;;;;;;;21.90;62.60;;;;;;5074192;28;19915;-74
2022/12/06 01:57:01;;;;;;;;;;;21.90;64.20;;;;;;5056268;28;19913;-75
2022/12/06 01:59:28;;;;;;;;;;;21.80;63.70;;;;;;5074119;28;20405;-74
2022/12/06 02:01:54;;;;;;;;;;;21.70;63.60;;;;;;5073829;28;19915;-75
2022/12/06 02:04:21;;;;;;;;;;;21.70;65.10;;;;;;5056392;28;19909;-75
2022/12/06 02:06:47;;;;;;;;;;;21.80;65.10;;;;;;5056399;28;19918;-73
2022/12/06 02:09:14;;;;;;;;;;;21.90;65.20;;;;;;5070501;28;19921;-74
2022/12/06 02:11:42;;;;;;;;;;;22.00;66.30;;;;;;5073735;28;19916;-75
2022/12/06 02:14:10;;;;;;;;;;;21.80;64.40;;;;;;5073661;28;20033;-75
2022/12/06 02:16:55;;;;;;;;;;;21.80;65.10;;;;;;5032811;28;19981;-74
2022/12/06 02:19:28;;;;;;;;;;;21.80;64.70;;;;;;5068875;28;19909;-73
2022/12/06 02:22:12;;;;;;;;;;;21.40;65.50;;;;;;5073760;28;19909;-73
2022/12/06 02:24:54;;;;;;;;;;;21.40;66.60;;;;;;5073403;28;19916;-74
2022/12/06 02:27:21;;;;;;;;;;;21.40;66.40;;;;;;5055916;28;19909;-73
2022/12/06 02:29:56;;;;;;;;;;;21.70;63.40;;;;;;5072836;28;19928;-73
2022/12/06 02:32:27;;;;;;;;;;;21.70;62.60;;;;;;5055928;28;19919;-74
2022/12/06 02:34:55;;;;;;;;;;;21.70;60.20;;;;;;5055867;28;20259;-74
2022/12/06 02:37:27;;;;;;;;;;;21.70;60.60;;;;;;5055550;28;20397;-74
2022/12/06 02:40:13;;;;;;;;;;;21.60;60.70;;;;;;5055437;28;20484;-74
2022/12/06 02:42:45;;;;;;;;;;;21.70;61.20;;;;;;5055628;28;19912;-74
2022/12/06 02:45:13;;;;;;;;;;;21.70;61.60;;;;;;5055336;28;20293;-75
2022/12/06 02:47:39;;;;;;;;;;;21.70;62.10;;;;;;5055206;28;20424;-73
2022/12/06 02:50:07;;;;;;;;;;;21.80;60.00;;;;;;5054805;28;19920;-73
2022/12/06 02:52:34;;;;;;;;;;;21.80;58.30;;;;;;5055290;28;20370;-74
2022/12/06 02:55:01;;;;;;;;;;;21.80;56.00;;;;;;5054787;28;19908;-74
2022/12/06 02:57:35;;;;;;;;;;;21.80;58.60;;;;;;5054940;28;20010;-75
2022/12/06 03:00:02;;;;;;;;;;;21.80;57.80;;;;;;5054910;28;19999;-74
2022/12/06 03:02:29;;;;;;;;;;;21.80;56.60;;;;;;5069171;28;19916;-73
2022/12/06 03:04:56;;;;;;;;;;;21.80;56.60;;;;;;5073045;28;19966;-73
2022/12/06 03:07:42;;;;;;;;;;;21.80;54.90;;;;;;5072784;28;19908;-74
2022/12/06 03:10:27;;;;;;;;;;;21.80;55.00;;;;;;5054982;28;19912;-74
2022/12/06 03:12:56;;;;;;;;;;;21.80;55.60;;;;;;5060530;28;19927;-73
2022/12/06 03:15:41;;;;;;;;;;;21.80;56.60;;;;;;5072546;28;20286;-74
2022/12/06 03:18:09;;;;;;;;;;;21.80;55.20;;;;;;5072253;28;19908;-74
2022/12/06 03:20:41;;;;;;;;;;;21.90;55.10;;;;;;5072103;28;19908;-74
2022/12/06 03:23:09;;;;;;;;;;;21.90;54.50;;;;;;5054361;28;20236;-73
2022/12/06 03:25:36;;;;;;;;;;;21.70;54.10;;;;;;5052828;28;19912;-74
2022/12/06 03:28:02;;;;;;;;;;;21.80;58.40;;;;;;5058734;28;19939;-75
2022/12/06 03:30:30;;;;;;;;;;;21.90;57.10;;;;;;5052027;28;20003;-74
2022/12/06 03:32:57;;;;;;;;;;;22.10;58.10;;;;;;5054139;28;19909;-75
2022/12/06 03:35:25;;;;;;;;;;;22.00;58.80;;;;;;5053613;28;19948;-75
2022/12/06 03:37:55;;;;;;;;;;;22.00;58.40;;;;;;5053518;28;19908;-75
2022/12/06 03:40:21;;;;;;;;;;;22.00;59.40;;;;;;5050722;28;20295;-76
2022/12/06 03:42:48;;;;;;;;;;;22.00;60.00;;;;;;5071983;28;19908;-74
2022/12/06 03:45:15;;;;;;;;;;;22.00;59.20;;;;;;5049694;28;19912;-76
2022/12/06 03:48:02;;;;;;;;;;;22.00;60.70;;;;;;5066544;28;19919;-75
2022/12/06 03:50:33;;;;;;;;;;;21.80;58.90;;;;;;5052979;28;19927;-75
2022/12/06 03:53:00;;;;;;;;;;;21.80;58.90;;;;;;5065509;28;20412;-76
2022/12/06 03:55:27;;;;;;;;;;;21.90;60.40;;;;;;5068165;28;19913;-75
2022/12/06 03:57:53;;;;;;;;;;;22.00;60.20;;;;;;5062120;28;20316;-76
2022/12/06 04:00:20;;;;;;;;;;;22.00;58.30;;;;;;5070937;28;19920;-76
2022/12/06 04:40:27;;;;;;;;;;;21.40;60.60;;;;;;5091341;28;19923;-74
2022/12/06 04:45:38;;;;;;;;;;;21.40;57.60;;;;;;5091118;28;19919;-76
2022/12/06 04:48:05;;;;;;;;;;;21.40;59.10;;;;;;5092183;28;20431;-74
2022/12/06 04:50:31;;;;;;;;;;;21.30;59.40;;;;;;5089790;28;19920;-73
2022/12/06 04:52:58;;;;;;;;;;;21.30;59.00;;;;;;5095605;28;20278;-74
2022/12/06 04:55:24;;;;;;;;;;;21.40;60.00;;;;;;5095143;28;19935;-74
2022/12/06 04:57:51;;;;;;;;;;;21.40;59.60;;;;;;5095225;28;19908;-74
2022/12/06 05:00:18;;;;;;;;;;;21.40;57.20;;;;;;5094609;28;20362;-74
2022/12/06 05:02:44;;;;;;;;;;;21.50;58.50;;;;;;5076845;28;19912;-75
2022/12/06 05:05:11;;;;;;;;;;;21.50;60.60;;;;;;5092045;28;20283;-75
2022/12/06 05:07:38;;;;;;;;;;;21.50;59.90;;;;;;5086723;28;19935;-75
2022/12/06 05:10:05;;;;;;;;;;;21.40;59.20;;;;;;5093680;28;20373;-75
2022/12/06 05:12:31;;;;;;;;;;;21.30;60.90;;;;;;5092843;28;19912;-75
2022/12/06 05:14:58;;;;;;;;;;;21.30;60.70;;;;;;5094679;28;19915;-74
2022/12/06 05:17:24;;;;;;;;;;;21.40;60.60;;;;;;5094094;28;20021;-75
2022/12/06 05:19:51;;;;;;;;;;;21.40;59.70;;;;;;5093890;28;19915;-76
2022/12/06 05:22:18;;;;;;;;;;;21.30;60.70;;;;;;5065854;28;19949;-74
2022/12/06 05:24:44;;;;;;;;;;;21.30;61.30;;;;;;5091286;28;19912;-74
2022/12/06 05:27:11;;;;;;;;;;;21.30;61.30;;;;;;5079569;28;19920;-75
2022/12/06 05:29:37;;;;;;;;;;;21.30;61.80;;;;;;5081631;28;20379;-72
2022/12/06 05:32:04;;;;;;;;;;;21.20;61.10;;;;;;5082214;28;19924;-70
2022/12/06 05:34:31;;;;;;;;;;;21.20;61.10;;;;;;5078484;28;19923;-74
2022/12/06 05:36:57;;;;;;;;;;;21.10;62.60;;;;;;5088075;28;19951;-70
2022/12/06 05:39:24;;;;;;;;;;;21.20;63.10;;;;;;5091291;28;20278;-73
2022/12/06 05:41:51;;;;;;;;;;;21.20;62.80;;;;;;5090495;28;20320;-70
2022/12/06 05:44:17;;;;;;;;;;;21.20;63.60;;;;;;5087941;28;19916;-69
2022/12/06 05:46:44;;;;;;;;;;;21.30;61.70;;;;;;5090855;28;19919;-70
2022/12/06 05:49:10;;;;;;;;;;;21.30;63.10;;;;;;5079427;28;20334;-72
2022/12/06 05:51:37;;;;;;;;;;;21.30;62.50;;;;;;5090168;28;19961;-72
2022/12/06 05:54:05;;;;;;;;;;;21.30;62.20;;;;;;5090321;28;20362;-73
2022/12/06 05:56:32;;;;;;;;;;;21.20;63.10;;;;;;5088100;28;19922;-73
2022/12/06 05:58:58;;;;;;;;;;;21.20;62.50;;;;;;5092729;28;20035;-74
2022/12/06 06:01:25;;;;;;;;;;;21.30;63.80;;;;;;5092088;28;20612;-74
2022/12/06 06:03:51;;;;;;;;;;;21.30;63.10;;;;;;5092648;28;19919;-73
2022/12/06 06:06:18;;;;;;;;;;;21.30;64.00;;;;;;5091227;28;19920;-72
2022/12/06 06:08:45;;;;;;;;;;;21.30;63.50;;;;;;5074111;28;19999;-73
2022/12/06 06:11:11;;;;;;;;;;;21.30;62.70;;;;;;5092973;28;19959;-73
2022/12/06 06:13:38;;;;;;;;;;;21.10;62.20;;;;;;5085847;28;19912;-74
2022/12/06 06:16:05;;;;;;;;;;;21.10;62.20;;;;;;5090719;28;20342;-75
2022/12/06 06:18:31;;;;;;;;;;;21.10;62.80;;;;;;5093096;28;19997;-75
2022/12/06 06:20:58;;;;;;;;;;;21.00;62.10;;;;;;5090149;28;19912;-75
2022/12/06 06:23:26;;;;;;;;;;;21.00;63.30;;;;;;5080605;28;19912;-75
2022/12/06 06:25:53;;;;;;;;;;;20.90;63.30;;;;;;5091369;28;20018;-75
2022/12/06 06:28:20;;;;;;;;;;;20.90;64.20;;;;;;5087839;28;20396;-76
2022/12/06 06:30:47;;;;;;;;;;;21.00;64.70;;;;;;5093092;28;20023;-75
2022/12/06 06:33:13;;;;;;;;;;;20.90;65.50;;;;;;5079151;28;19966;-76
2022/12/06 06:35:40;;;;;;;;;;;20.90;65.60;;;;;;5080568;28;19981;-76
2022/12/06 06:38:07;;;;;;;;;;;20.90;64.90;;;;;;5061242;28;19920;-75
2022/12/06 06:40:33;;;;;;;;;;;20.90;65.00;;;;;;5078228;28;19916;-76
2022/12/06 06:43:16;;;;;;;;;;;20.80;65.60;;;;;;5070498;28;20015;-74
2022/12/06 06:46:05;;;;;;;;;;;20.80;66.60;;;;;;5088190;28;20434;-74
2022/12/06 06:48:32;;;;;;;;;;;20.70;66.40;;;;;;5089375;28;19912;-76
2022/12/06 06:51:02;;;;;;;;;;;20.70;67.10;;;;;;5089143;28;19924;-73
2022/12/06 06:53:30;;;;;;;;;;;20.70;66.50;;;;;;5089577;28;19911;-74
2022/12/06 06:56:01;;;;;;;;;;;20.50;65.20;;;;;;5081715;28;20732;-74
2022/12/06 06:58:28;;;;;;;;;;;20.50;66.60;;;;;;5085488;28;20392;-73
2022/12/06 07:00:55;;;;;;;;;;;20.40;66.80;;;;;;5089815;28;19997;-73
2022/12/06 07:03:22;;;;;;;;;;;20.40;67.30;;;;;;5074557;28;19922;-75
2022/12/06 07:05:55;;;;;;;;;;;20.40;67.20;;;;;;5090832;28;20336;-76
2022/12/06 07:08:21;;;;;;;;;;;20.40;68.40;;;;;;5085638;28;19969;-74
2022/12/06 07:10:48;;;;;;;;;;;20.40;67.90;;;;;;5089857;28;19969;-75
2022/12/06 07:13:19;;;;;;;;;;;20.30;67.40;;;;;;5064673;28;20010;-76
2022/12/06 07:15:46;;;;;;;;;;;20.30;66.60;;;;;;5085912;28;19916;-77
2022/12/06 07:18:12;;;;;;;;;;;20.30;67.10;;;;;;5089536;28;19916;-76
2022/12/06 07:20:39;;;;;;;;;;;20.30;67.30;;;;;;5087195;28;19999;-77
2022/12/06 07:23:05;;;;;;;;;;;20.40;67.70;;;;;;5085438;28;19935;-75
2022/12/06 07:25:32;;;;;;;;;;;20.40;67.80;;;;;;5081330;28;19920;-76
2022/12/06 07:27:58;;;;;;;;;;;20.30;66.90;;;;;;5080000;28;19959;-76
2022/12/06 07:30:26;;;;;;;;;;;20.40;68.80;;;;;;5083779;28;20310;-78
2022/12/06 07:32:53;;;;;;;;;;;20.40;67.30;;;;;;5083381;28;20324;-78
2022/12/06 07:35:20;;;;;;;;;;;20.40;65.90;;;;;;5086152;28;19916;-76
2022/12/06 07:37:47;;;;;;;;;;;20.40;66.30;;;;;;5086227;28;19928;-77
2022/12/06 07:40:14;;;;;;;;;;;20.30;67.30;;;;;;5080125;28;20400;-77
2022/12/06 07:45:25;;;;;;;;;;;20.30;67.70;;;;;;5087769;28;20041;-77
2022/12/06 07:47:52;;;;;;;;;;;20.40;68.00;;;;;;5069998;28;20002;-75
2022/12/06 07:50:19;;;;;;;;;;;20.40;66.80;;;;;;5079487;28;20381;-75
2022/12/06 07:52:46;;;;;;;;;;;20.30;67.20;;;;;;5085164;28;19927;-74
2022/12/06 07:55:13;;;;;;;;;;;20.30;68.40;;;;;;5084444;28;20349;-75
2022/12/06 07:57:40;;;;;;;;;;;20.30;68.40;;;;;;5084209;28;19981;-75
2022/12/06 08:00:07;;;;;;;;;;;20.30;69.00;;;;;;5080100;28;20330;-74
2022/12/06 10:44:43;;;;;;;;;;;19.70;70.70;;;;;;5078033;28;19935;-75
2022/12/06 10:47:24;;;;;;;;;;;19.70;70.70;;;;;;5074116;28;19926;-75
2022/12/06 10:50:11;;;;;;;;;;;19.60;70.80;;;;;;5053966;28;19912;-74
2022/12/06 10:52:40;;;;;;;;;;;19.70;70.50;;;;;;5079930;28;20431;-75
2022/12/06 10:55:10;;;;;;;;;;;19.60;70.60;;;;;;5067094;28;19919;-75
2022/12/06 10:57:39;;;;;;;;;;;19.70;70.60;;;;;;5083839;28;19912;-75
2022/12/06 11:00:15;;;;;;;;;;;19.70;70.70;;;;;;5084162;28;19916;-75
2022/12/06 11:02:54;;;;;;;;;;;19.70;71.40;;;;;;5071739;28;19978;-75
2022/12/06 11:05:44;;;;;;;;;;;19.60;71.70;;;;;;5086631;28;19908;-75
2022/12/06 11:08:14;;;;;;;;;;;19.70;71.40;;;;;;5073599;28;19927;-75
2022/12/06 11:10:41;;;;;;;;;;;19.70;72.10;;;;;;5070851;28;19920;-75
2022/12/06 11:13:20;;;;;;;;;;;19.70;71.60;;;;;;5089928;28;19931;-74
2022/12/06 11:15:54;;;;;;;;;;;19.60;71.60;;;;;;5089073;28;19920;-74
2022/12/06 11:18:21;;;;;;;;;;;19.60;71.70;;;;;;5063748;28;20373;-74
2022/12/06 11:20:57;;;;;;;;;;;19.60;71.90;;;;;;5089521;28;19912;-75
2022/12/06 11:23:35;;;;;;;;;;;19.70;71.50;;;;;;5059571;28;19919;-75
2022/12/06 11:26:21;;;;;;;;;;;19.60;72.00;;;;;;5071870;28;19913;-73
2022/12/06 11:29:07;;;;;;;;;;;19.60;71.90;;;;;;5089242;28;19911;-72
2022/12/06 11:31:37;;;;;;;;;;;19.70;71.80;;;;;;5071000;28;19919;-74
2022/12/06 11:34:04;;;;;;;;;;;19.70;72.10;;;;;;5089562;28;19916;-73
2022/12/06 11:36:31;;;;;;;;;;;19.70;71.50;;;;;;5070687;28;20229;-74
2022/12/06 11:38:58;;;;;;;;;;;19.70;71.60;;;;;;5082287;28;19916;-73
2022/12/06 11:41:26;;;;;;;;;;;19.70;71.70;;;;;;5088338;28;19916;-74
2022/12/06 11:43:52;;;;;;;;;;;19.70;71.80;;;;;;5084835;28;19978;-75
2022/12/06 11:46:19;;;;;;;;;;;19.80;72.40;;;;;;5062002;28;19913;-75
2022/12/06 11:48:45;;;;;;;;;;;19.80;71.80;;;;;;5082943;28;19916;-73
2022/12/06 11:51:16;;;;;;;;;;;19.70;71.80;;;;;;5091888;28;19985;-76
2022/12/06 11:54:03;;;;;;;;;;;19.80;71.80;;;;;;5092265;28;19923;-76
2022/12/06 11:56:31;;;;;;;;;;;19.70;72.40;;;;;;5090602;28;19957;-76
2022/12/06 11:59:00;;;;;;;;;;;19.70;72.40;;;;;;5091163;28;19912;-76
2022/12/06 12:01:56;;;;;;;;;;;19.70;72.10;;;;;;5070168;28;19919;-75
2022/12/06 12:04:23;;;;;;;;;;;19.70;72.10;;;;;;5065170;28;20421;-76
2022/12/06 12:07:02;;;;;;;;;;;19.70;72.10;;;;;;5091832;28;20073;-75
2022/12/06 12:09:30;;;;;;;;;;;19.70;71.90;;;;;;5091062;28;19955;-76
2022/12/06 12:12:01;;;;;;;;;;;19.70;72.10;;;;;;5072519;28;19924;-76
2022/12/06 12:14:30;;;;;;;;;;;19.70;72.20;;;;;;5090578;28;20002;-76
2022/12/06 12:17:00;;;;;;;;;;;19.60;71.90;;;;;;5073765;28;19908;-76
2022/12/06 12:19:38;;;;;;;;;;;19.60;71.80;;;;;;5073478;28;19912;-76
2022/12/06 12:22:16;;;;;;;;;;;19.60;71.60;;;;;;5073914;28;19908;-76
2022/12/06 12:24:49;;;;;;;;;;;19.50;71.60;;;;;;5073780;28;19951;-76
2022/12/06 12:27:35;;;;;;;;;;;19.50;71.60;;;;;;5091931;28;19912;-76
2022/12/06 12:30:20;;;;;;;;;;;19.60;72.30;;;;;;5073092;28;19916;-76
2022/12/06 12:32:47;;;;;;;;;;;19.40;71.70;;;;;;5091799;28;20342;-76
2022/12/06 12:35:29;;;;;;;;;;;19.40;71.90;;;;;;5073561;28;20007;-75
2022/12/06 12:38:00;;;;;;;;;;;19.40;72.10;;;;;;5087477;28;19923;-76
2022/12/06 12:40:33;;;;;;;;;;;19.40;72.10;;;;;;5084448;28;19963;-76
2022/12/06 12:43:06;;;;;;;;;;;19.40;72.30;;;;;;5073557;28;19966;-76
2022/12/06 12:45:33;;;;;;;;;;;19.30;72.40;;;;;;5091870;28;19943;-76
2022/12/06 12:48:00;;;;;;;;;;;19.30;72.10;;;;;;5090050;28;19958;-76
2022/12/06 12:50:27;;;;;;;;;;;19.30;72.20;;;;;;5073312;28;20282;-76
2022/12/06 12:52:54;;;;;;;;;;;19.30;72.10;;;;;;5057098;28;20289;-76
2022/12/06 12:55:21;;;;;;;;;;;19.30;72.20;;;;;;5071840;28;19916;-76
2022/12/06 12:57:51;;;;;;;;;;;19.30;72.50;;;;;;5082896;28;19920;-76
2022/12/06 13:00:19;;;;;;;;;;;19.30;73.00;;;;;;5076569;28;20285;-76
2022/12/06 13:03:15;;;;;;;;;;;19.30;72.90;;;;;;5095162;28;20263;-76
2022/12/06 13:05:41;;;;;;;;;;;19.30;72.90;;;;;;5061996;28;20286;-76
2022/12/06 13:08:11;;;;;;;;;;;19.30;73.20;;;;;;5076988;28;19908;-76
2022/12/06 13:10:38;;;;;;;;;;;19.20;73.20;;;;;;5091027;28;19916;-76
2022/12/06 13:13:11;;;;;;;;;;;19.30;73.60;;;;;;5095137;28;19908;-76
2022/12/06 13:15:40;;;;;;;;;;;19.30;73.70;;;;;;5094971;28;19922;-76
2022/12/06 13:18:13;;;;;;;;;;;19.20;73.60;;;;;;5076957;28;19946;-76
2022/12/06 13:20:40;;;;;;;;;;;19.30;73.70;;;;;;5076603;28;19956;-76
2022/12/06 13:23:32;;;;;;;;;;;19.30;73.40;;;;;;5094534;28;20020;-76
2022/12/06 13:26:17;;;;;;;;;;;19.30;73.50;;;;;;5090367;28;19915;-76
2022/12/06 13:28:45;;;;;;;;;;;19.30;73.70;;;;;;5085312;28;20113;-76
2022/12/06 13:31:15;;;;;;;;;;;19.30;74.00;;;;;;5076571;28;19959;-76
2022/12/06 13:33:46;;;;;;;;;;;19.30;73.70;;;;;;5076393;28;20423;-76
2022/12/06 13:36:13;;;;;;;;;;;19.30;74.00;;;;;;5094828;28;19953;-76
2022/12/06 13:38:40;;;;;;;;;;;19.30;74.10;;;;;;5076609;28;19915;-76
2022/12/06 13:41:13;;;;;;;;;;;19.20;73.90;;;;;;5094680;28;19912;-76
2022/12/06 13:43:39;;;;;;;;;;;19.20;73.90;;;;;;5081520;28;20353;-76
2022/12/06 13:46:06;;;;;;;;;;;19.20;73.90;;;;;;5094508;28;19970;-76
2022/12/06 13:48:32;;;;;;;;;;;19.20;73.80;;;;;;5094462;28;19908;-76
2022/12/06 13:51:03;;;;;;;;;;;19.10;73.80;;;;;;5084540;28;19937;-76
2022/12/06 13:53:32;;;;;;;;;;;19.10;74.00;;;;;;5094058;28;19916;-76
2022/12/06 13:56:00;;;;;;;;;;;19.20;73.90;;;;;;5082330;28;19912;-76
2022/12/06 13:58:27;;;;;;;;;;;19.10;74.50;;;;;;5094063;28;19966;-76
2022/12/06 14:00:55;;;;;;;;;;;19.10;74.50;;;;;;5093605;28;20006;-76
2022/12/06 14:03:25;;;;;;;;;;;19.10;75.00;;;;;;5076000;28;20390;-76
2022/12/06 14:05:57;;;;;;;;;;;19.00;75.10;;;;;;5089044;28;19913;-75
2022/12/06 14:08:39;;;;;;;;;;;19.00;75.30;;;;;;5080679;28;19919;-76
2022/12/06 14:11:07;;;;;;;;;;;19.00;75.60;;;;;;5080677;28;20417;-76
2022/12/06 14:13:33;;;;;;;;;;;19.00;75.70;;;;;;5085747;28;19915;-76
2022/12/06 14:16:00;;;;;;;;;;;19.00;75.80;;;;;;5093523;28;19923;-76
2022/12/06 14:18:27;;;;;;;;;;;18.90;76.00;;;;;;5091532;28;19908;-76
2022/12/06 14:20:54;;;;;;;;;;;18.90;76.10;;;;;;5075684;28;19919;-76
2022/12/06 14:23:28;;;;;;;;;;;18.90;76.10;;;;;;5093881;28;19995;-76
2022/12/06 14:26:17;;;;;;;;;;;18.80;76.40;;;;;;5093715;28;19914;-76
2022/12/06 14:28:44;;;;;;;;;;;18.80;76.50;;;;;;5080102;28;19998;-76
2022/12/06 14:31:34;;;;;;;;;;;18.80;76.60;;;;;;5078898;28;19920;-77
2022/12/06 14:34:00;;;;;;;;;;;18.80;76.90;;;;;;5093111;28;19914;-76
2022/12/06 14:36:30;;;;;;;;;;;18.80;77.30;;;;;;5093182;28;19912;-76
2022/12/06 14:39:00;;;;;;;;;;;18.80;77.80;;;;;;5093260;28;19915;-76
2022/12/06 14:44:25;;;;;;;;;;;18.80;78.40;;;;;;5076153;28;19931;-76
2022/12/06 14:46:52;;;;;;;;;;;18.70;78.80;;;;;;5071466;28;19965;-76
2022/12/06 14:52:15;;;;;;;;;;;18.70;79.30;;;;;;5079201;28;19927;-76
2022/12/06 14:54:42;;;;;;;;;;;18.60;79.80;;;;;;5092824;28;19912;-76
2022/12/06 22:26:52;;;;;;;;;;;22.70;67.20;;;;;;5055978;28;19951;-72
2022/12/06 22:29:18;;;;;;;;;;;22.70;67.50;;;;;;5073053;28;19924;-71
2022/12/06 22:31:45;;;;;;;;;;;22.80;67.60;;;;;;5072793;28;19917;-71
2022/12/06 22:34:12;;;;;;;;;;;22.80;66.00;;;;;;5058575;28;21026;-71
2022/12/06 22:36:38;;;;;;;;;;;22.80;66.10;;;;;;5070374;28;19915;-72
2022/12/06 22:39:05;;;;;;;;;;;22.90;66.00;;;;;;5048803;28;19916;-73
2022/12/06 22:41:32;;;;;;;;;;;23.00;65.40;;;;;;5068695;28;19917;-71
2022/12/06 22:44:00;;;;;;;;;;;23.10;65.50;;;;;;5050706;28;19908;-71
2022/12/06 22:46:26;;;;;;;;;;;23.30;66.10;;;;;;5072893;28;20048;-70
2022/12/06 22:48:53;;;;;;;;;;;23.40;66.60;;;;;;5072784;28;19912;-71
2022/12/06 22:51:24;;;;;;;;;;;23.40;63.30;;;;;;5055141;28;20012;-70
2022/12/06 22:53:54;;;;;;;;;;;23.40;63.40;;;;;;5064095;28;19913;-73
2022/12/06 22:56:21;;;;;;;;;;;23.50;64.20;;;;;;5055261;28;20002;-70
2022/12/06 22:58:47;;;;;;;;;;;23.70;64.20;;;;;;5064275;28;20282;-71
2022/12/06 23:01:16;;;;;;;;;;;23.70;62.10;;;;;;5053902;28;19909;-71
2022/12/06 23:03:42;;;;;;;;;;;23.90;63.10;;;;;;5043539;28;19963;-72
2022/12/06 23:06:09;;;;;;;;;;;24.00;62.70;;;;;;5057143;28;19936;-72
2022/12/06 23:08:36;;;;;;;;;;;24.20;61.00;;;;;;5056261;28;19913;-72
2022/12/06 23:11:06;;;;;;;;;;;24.20;61.10;;;;;;5066121;28;19916;-71
2022/12/06 23:13:33;;;;;;;;;;;24.30;61.70;;;;;;5071995;28;19924;-72
2022/12/06 23:16:00;;;;;;;;;;;24.30;61.60;;;;;;5039412;28;19983;-72
2022/12/06 23:18:27;;;;;;;;;;;24.50;61.10;;;;;;5039273;28;19913;-72
2022/12/06 23:21:01;;;;;;;;;;;24.60;61.50;;;;;;5051406;28;19923;-72
2022/12/06 23:23:28;;;;;;;;;;;24.60;61.40;;;;;;5048749;28;20069;-72
